Time;durP1;ratioP1;P1;durP2;ratioP2;P2;SDS_P1;SDS_P2;PMS_P1;PMS_P2;Temp;Humidity;BMP_temperature;BMP_pressure;BME280_temperature;BME280_humidity;BME280_pressure;Samples;Min_cycle;Max_cycle;Signal;HPM_P1;HPM_P2
2022/09/17 00:00:42;;;;;;;7.47;1.50;;;13.70;99.90;;;;;;4936890;29;20127;-73
2022/09/17 00:03:08;;;;;;;6.10;1.00;;;13.70;99.90;;;;;;4936830;29;20099;-73
2022/09/17 00:05:38;;;;;;;5.00;1.20;;;13.80;99.90;;;;;;4936828;29;20043;-74
2022/09/17 00:08:06;;;;;;;3.95;1.10;;;13.80;99.90;;;;;;4936303;29;20036;-73
2022/09/17 00:10:36;;;;;;;11.68;1.60;;;13.90;99.90;;;;;;4937144;29;20035;-73
2022/09/17 00:13:03;;;;;;;8.90;1.80;;;13.70;99.90;;;;;;4919825;29;20474;-75
2022/09/17 00:15:29;;;;;;;6.90;1.73;;;13.80;99.90;;;;;;4936876;29;20126;-72
2022/09/17 00:17:58;;;;;;;6.78;1.77;;;13.70;99.90;;;;;;4936551;29;20171;-72
2022/09/17 00:20:25;;;;;;;6.22;1.63;;;13.70;99.90;;;;;;4936094;29;20378;-72
2022/09/17 00:22:51;;;;;;;8.50;1.73;;;13.80;99.90;;;;;;4936597;29;20027;-72
2022/09/17 00:25:18;;;;;;;6.72;1.25;;;13.70;99.90;;;;;;4937111;29;20114;-73
2022/09/17 00:27:44;;;;;;;7.97;1.88;;;13.80;99.90;;;;;;4936062;29;20347;-73
2022/09/17 00:30:10;;;;;;;10.32;2.50;;;13.90;99.90;;;;;;4935970;29;20130;-72
2022/09/17 00:32:36;;;;;;;11.55;2.25;;;13.90;99.90;;;;;;4936249;29;20040;-75
2022/09/17 00:35:01;;;;;;;8.60;1.92;;;13.90;99.90;;;;;;4936282;29;20112;-74
2022/09/17 00:37:27;;;;;;;8.90;1.70;;;13.70;99.90;;;;;;4936963;29;20476;-71
2022/09/17 00:39:53;;;;;;;13.40;2.10;;;13.80;99.90;;;;;;4936391;29;20042;-72
2022/09/17 00:42:19;;;;;;;11.43;1.65;;;13.80;99.90;;;;;;4936245;29;20509;-73
2022/09/17 00:44:52;;;;;;;15.25;1.90;;;13.80;99.90;;;;;;4919160;29;20031;-72
2022/09/17 00:47:23;;;;;;;11.68;1.90;;;13.80;99.90;;;;;;4935804;29;20035;-73
2022/09/17 00:49:54;;;;;;;13.90;2.08;;;13.80;99.90;;;;;;4936609;29;20038;-72
2022/09/17 00:52:25;;;;;;;8.65;2.00;;;13.80;99.90;;;;;;4935895;29;20039;-74
2022/09/17 00:55:25;;;;;;;12.40;1.95;;;13.90;99.90;;;;;;4936077;28;20047;-73
2022/09/17 00:57:54;;;;;;;11.93;2.10;;;13.70;99.90;;;;;;4932534;29;20046;-72
2022/09/17 01:00:20;;;;;;;13.73;2.33;;;13.70;99.90;;;;;;4935431;29;20038;-72
2022/09/17 01:02:46;;;;;;;10.20;2.00;;;13.80;99.90;;;;;;4918600;29;20034;-71
2022/09/17 01:05:13;;;;;;;8.88;2.17;;;13.70;99.90;;;;;;4935323;29;20027;-72
2022/09/17 01:08:00;;;;;;;15.48;2.33;;;13.80;99.90;;;;;;4935732;29;20107;-72
2022/09/17 01:11:08;;;;;;;10.07;2.28;;;13.80;99.90;;;;;;4935666;29;20054;-73
2022/09/17 01:14:07;;;;;;;9.52;2.17;;;13.70;99.90;;;;;;4898712;29;20052;-73
2022/09/17 01:17:19;;;;;;;11.27;1.90;;;13.80;99.90;;;;;;4903767;29;20412;-73
2022/09/17 01:20:15;;;;;;;9.48;2.17;;;13.70;99.90;;;;;;4935329;29;20039;-74
2022/09/17 01:22:47;;;;;;;15.13;2.05;;;13.70;99.90;;;;;;4935912;29;20035;-73
2022/09/17 01:25:23;;;;;;;12.13;2.17;;;13.70;99.90;;;;;;4918664;29;20028;-73
2022/09/17 01:28:21;;;;;;;17.67;2.13;;;13.70;99.90;;;;;;4935374;29;20123;-72
2022/09/17 01:30:52;;;;;;;17.98;3.03;;;13.60;99.90;;;;;;4935123;29;20063;-73
2022/09/17 01:33:52;;;;;;;17.30;2.15;;;13.60;99.90;;;;;;4934354;29;20070;-73
2022/09/17 01:36:53;;;;;;;13.82;1.83;;;13.50;99.90;;;;;;4934949;29;20039;-72
2022/09/17 01:39:31;;;;;;;11.73;1.85;;;13.50;99.90;;;;;;4935020;29;20122;-72
2022/09/17 01:42:03;;;;;;;12.63;2.22;;;13.60;99.90;;;;;;4935190;28;20402;-72
2022/09/17 01:44:37;;;;;;;12.25;1.83;;;13.60;99.90;;;;;;4934835;29;20347;-71
2022/09/17 01:47:16;;;;;;;10.57;2.05;;;13.50;99.90;;;;;;4934743;29;20024;-71
2022/09/17 01:49:43;;;;;;;12.63;2.38;;;13.60;99.90;;;;;;4935330;29;20453;-72
2022/09/17 01:52:12;;;;;;;9.50;1.73;;;13.40;99.90;;;;;;4934832;29;20044;-70
2022/09/17 01:54:46;;;;;;;11.63;1.98;;;13.40;99.90;;;;;;4917809;29;20449;-71
2022/09/17 01:57:50;;;;;;;10.55;2.20;;;13.40;99.90;;;;;;4917750;29;20032;-71
2022/09/17 02:00:17;;;;;;;13.25;2.15;;;13.30;99.90;;;;;;4917763;29;20031;-71
2022/09/17 02:02:46;;;;;;;10.75;1.52;;;13.20;99.90;;;;;;4934643;29;20572;-70
2022/09/17 02:05:20;;;;;;;12.30;1.90;;;13.20;99.90;;;;;;4934526;29;20032;-71
2022/09/17 02:07:58;;;;;;;14.98;2.00;;;13.40;99.90;;;;;;4935213;29;20042;-72
2022/09/17 02:10:35;;;;;;;15.18;1.75;;;13.50;99.90;;;;;;4934821;29;20040;-71
2022/09/17 02:13:09;;;;;;;7.60;1.70;;;13.40;99.90;;;;;;4900354;29;20052;-71
2022/09/17 02:15:42;;;;;;;14.52;2.58;;;13.30;99.90;;;;;;4915427;29;20745;-71
2022/09/17 02:18:25;;;;;;;12.55;1.90;;;13.30;99.90;;;;;;4915830;29;20054;-72
2022/09/17 02:21:07;;;;;;;19.92;2.97;;;13.40;99.90;;;;;;4915463;29;20039;-72
2022/09/17 02:23:37;;;;;;;12.52;2.45;;;13.30;99.90;;;;;;4915432;29;20039;-72
2022/09/17 02:26:14;;;;;;;16.30;2.38;;;13.40;99.90;;;;;;4915669;29;20258;-74
2022/09/17 02:28:44;;;;;;;19.33;2.75;;;13.20;99.90;;;;;;4915658;29;20032;-72
2022/09/17 02:31:10;;;;;;;16.42;2.42;;;13.30;99.90;;;;;;4898471;29;20032;-72
2022/09/17 02:33:38;;;;;;;15.85;2.25;;;13.30;99.90;;;;;;4915314;29;20061;-71
2022/09/17 02:36:07;;;;;;;15.60;3.38;;;13.30;99.90;;;;;;4898374;29;20048;-73
2022/09/17 02:38:33;;;;;;;12.98;1.80;;;13.30;99.90;;;;;;4898229;29;20028;-72
2022/09/17 02:41:20;;;;;;;15.15;2.30;;;13.40;99.90;;;;;;4915382;29;20367;-72
2022/09/17 02:43:59;;;;;;;27.23;3.33;;;13.40;99.90;;;;;;4915459;29;20028;-73
2022/09/17 02:46:40;;;;;;;23.33;3.13;;;13.30;99.90;;;;;;4917323;29;20723;-73
2022/09/17 02:49:21;;;;;;;12.18;2.08;;;13.20;99.90;;;;;;4934039;28;20032;-72
2022/09/17 02:52:06;;;;;;;18.55;2.83;;;13.10;99.90;;;;;;4933888;28;20032;-72
2022/09/17 02:54:51;;;;;;;22.05;4.38;;;13.10;99.90;;;;;;4933726;28;20035;-72
2022/09/17 02:57:33;;;;;;;17.60;2.88;;;13.10;99.90;;;;;;4933659;28;20106;-72
2022/09/17 03:00:21;;;;;;;12.70;2.38;;;13.20;99.90;;;;;;4933790;28;20027;-72
2022/09/17 03:03:10;;;;;;;13.45;1.45;;;13.20;99.90;;;;;;4933674;28;20430;-72
2022/09/17 03:05:38;;;;;;;14.00;2.10;;;13.20;99.90;;;;;;4906615;29;20024;-72
2022/09/17 03:08:08;;;;;;;15.25;2.15;;;13.10;99.90;;;;;;4933802;28;20036;-73
2022/09/17 03:10:34;;;;;;;13.45;2.53;;;13.00;99.90;;;;;;4934412;29;20059;-71
2022/09/17 03:13:00;;;;;;;10.77;1.85;;;13.00;99.90;;;;;;4933459;28;20060;-71
2022/09/17 03:15:25;;;;;;;13.68;2.13;;;13.00;99.90;;;;;;4933630;28;20039;-72
2022/09/17 03:17:51;;;;;;;11.70;1.85;;;13.00;99.90;;;;;;4933578;28;20028;-71
2022/09/17 03:20:17;;;;;;;13.75;2.03;;;13.00;99.90;;;;;;4933291;29;20107;-72
2022/09/17 03:22:43;;;;;;;17.83;3.28;;;13.00;99.90;;;;;;4934136;29;20119;-71
2022/09/17 03:25:08;;;;;;;20.30;2.25;;;13.00;99.90;;;;;;4916870;29;20094;-70
2022/09/17 03:27:34;;;;;;;18.60;2.72;;;12.90;99.90;;;;;;4933612;28;20034;-70
2022/09/17 03:30:00;;;;;;;16.70;2.58;;;12.90;99.90;;;;;;4933295;28;20048;-71
2022/09/17 03:32:26;;;;;;;15.45;2.88;;;12.90;99.90;;;;;;4916510;29;20094;-72
2022/09/17 03:34:53;;;;;;;12.75;2.75;;;12.90;99.90;;;;;;4933394;28;20032;-71
2022/09/17 03:37:19;;;;;;;21.67;2.70;;;12.80;99.90;;;;;;4933850;29;20031;-71
2022/09/17 03:39:45;;;;;;;13.18;1.95;;;13.00;99.90;;;;;;4933676;28;20032;-71
2022/09/17 03:42:11;;;;;;;19.83;2.17;;;12.90;99.90;;;;;;4933457;28;20512;-71
2022/09/17 03:44:36;;;;;;;19.88;2.13;;;12.90;99.90;;;;;;4933319;28;20086;-71
2022/09/17 03:47:02;;;;;;;13.32;1.98;;;12.80;99.90;;;;;;4933207;28;20046;-71
2022/09/17 03:49:28;;;;;;;9.35;1.98;;;12.80;99.90;;;;;;4933700;29;20032;-72
2022/09/17 03:51:53;;;;;;;13.35;2.35;;;12.80;99.90;;;;;;4933170;28;20494;-72
2022/09/17 03:54:19;;;;;;;19.58;2.67;;;12.80;99.90;;;;;;4933332;28;20042;-72
2022/09/17 03:56:44;;;;;;;22.90;2.95;;;12.90;99.90;;;;;;4936702;28;20028;-71
2022/09/17 03:59:10;;;;;;;17.33;2.55;;;12.70;99.90;;;;;;4936947;29;20438;-72
2022/09/17 04:01:36;;;;;;;13.77;2.05;;;12.70;99.90;;;;;;4937190;29;20059;-71
2022/09/17 04:04:03;;;;;;;15.77;2.33;;;12.80;99.90;;;;;;4936680;28;20339;-72
2022/09/17 04:06:28;;;;;;;15.82;2.00;;;12.80;99.90;;;;;;4936557;28;20111;-72
2022/09/17 04:08:55;;;;;;;18.02;2.47;;;12.80;99.90;;;;;;4936493;28;20131;-72
2022/09/17 04:11:21;;;;;;;22.05;3.53;;;12.90;99.90;;;;;;4936348;28;20034;-70
2022/09/17 04:13:47;;;;;;;22.73;2.60;;;12.90;99.90;;;;;;4936928;29;20149;-72
2022/09/17 04:16:13;;;;;;;11.10;2.42;;;12.80;99.90;;;;;;4919549;29;20160;-71
2022/09/17 04:18:39;;;;;;;13.07;2.63;;;12.70;99.90;;;;;;4936387;28;20027;-72
2022/09/17 04:21:05;;;;;;;20.63;3.40;;;12.80;99.90;;;;;;4936412;28;20028;-72
2022/09/17 04:23:31;;;;;;;13.23;2.90;;;12.60;99.90;;;;;;4936260;28;20044;-72
2022/09/17 04:25:56;;;;;;;17.08;2.28;;;12.60;99.90;;;;;;4936202;28;20457;-72
2022/09/17 04:28:22;;;;;;;15.40;2.33;;;12.60;99.90;;;;;;4919779;29;20027;-71
2022/09/17 04:30:48;;;;;;;20.52;2.25;;;12.70;99.90;;;;;;4936231;28;20047;-72
2022/09/17 04:33:14;;;;;;;19.38;2.67;;;12.70;99.90;;;;;;4936028;28;20118;-72
2022/09/17 04:35:39;;;;;;;18.88;2.20;;;12.80;99.90;;;;;;4919334;29;20027;-72
2022/09/17 04:38:05;;;;;;;17.67;1.85;;;12.80;99.90;;;;;;4936066;28;20043;-72
2022/09/17 04:40:31;;;;;;;16.83;2.58;;;12.70;99.90;;;;;;4936443;29;20029;-73
2022/09/17 04:42:58;;;;;;;15.07;2.42;;;12.70;99.90;;;;;;4935891;28;20314;-71
2022/09/17 04:45:25;;;;;;;13.77;2.37;;;12.80;99.90;;;;;;4935927;28;20597;-73
2022/09/17 04:47:51;;;;;;;16.33;2.17;;;12.90;99.90;;;;;;4935898;28;20357;-73
2022/09/17 04:50:20;;;;;;;20.92;2.45;;;12.70;99.90;;;;;;4935867;28;20072;-72
2022/09/17 04:52:48;;;;;;;20.13;2.65;;;12.60;99.90;;;;;;4936187;29;20115;-72
2022/09/17 04:55:15;;;;;;;9.25;2.28;;;12.50;99.90;;;;;;4935884;28;20035;-72
2022/09/17 04:57:52;;;;;;;18.83;2.50;;;12.70;99.90;;;;;;4935680;28;20028;-71
2022/09/17 05:00:19;;;;;;;25.00;2.85;;;12.80;99.90;;;;;;4919072;29;20334;-72
2022/09/17 05:02:49;;;;;;;12.35;2.05;;;12.70;99.90;;;;;;4935675;28;20098;-72
2022/09/17 05:05:17;;;;;;;14.70;2.22;;;12.60;99.90;;;;;;4935736;28;20035;-72
2022/09/17 05:07:43;;;;;;;21.88;3.08;;;12.70;99.90;;;;;;4917873;29;20044;-72
2022/09/17 05:10:11;;;;;;;18.55;2.75;;;12.60;99.90;;;;;;4918635;29;20031;-72
2022/09/17 05:12:37;;;;;;;13.80;2.43;;;12.60;99.90;;;;;;4935427;28;20032;-71
2022/09/17 05:15:03;;;;;;;14.25;2.92;;;12.60;99.90;;;;;;4935380;28;20028;-72
2022/09/17 05:17:29;;;;;;;17.92;2.70;;;12.70;99.90;;;;;;4935312;28;20043;-71
2022/09/17 05:19:54;;;;;;;17.08;2.75;;;12.70;99.90;;;;;;4935531;28;20512;-72
2022/09/17 05:22:20;;;;;;;13.38;2.50;;;12.70;99.90;;;;;;4919083;29;20032;-73
2022/09/17 05:24:46;;;;;;;15.48;2.00;;;12.70;99.90;;;;;;4935481;28;20059;-73
2022/09/17 05:27:12;;;;;;;14.23;2.55;;;12.60;99.90;;;;;;4935300;28;20496;-72
2022/09/17 05:29:38;;;;;;;21.42;3.80;;;12.60;99.90;;;;;;4918254;29;20036;-72
2022/09/17 05:32:05;;;;;;;15.60;2.60;;;12.70;99.90;;;;;;4934934;28;20024;-71
2022/09/17 05:34:30;;;;;;;17.15;2.92;;;12.60;99.90;;;;;;4935561;29;20031;-72
2022/09/17 05:36:57;;;;;;;12.45;2.67;;;12.70;99.90;;;;;;4935196;28;20035;-71
2022/09/17 05:39:24;;;;;;;13.98;2.28;;;12.60;99.90;;;;;;4918494;29;20062;-71
2022/09/17 05:41:53;;;;;;;17.45;2.85;;;12.60;99.90;;;;;;4934927;28;20067;-72
2022/09/17 05:44:19;;;;;;;15.65;2.70;;;12.70;99.90;;;;;;4934833;28;20043;-72
2022/09/17 05:46:45;;;;;;;15.25;2.85;;;12.50;99.90;;;;;;4935395;29;20024;-72
2022/09/17 05:49:13;;;;;;;23.67;3.50;;;12.60;99.90;;;;;;4934869;28;20031;-72
2022/09/17 05:51:38;;;;;;;20.60;3.35;;;12.50;99.90;;;;;;4934712;28;20047;-72
2022/09/17 05:54:04;;;;;;;13.80;2.28;;;12.60;99.90;;;;;;4934645;28;20028;-70
2022/09/17 05:56:30;;;;;;;17.75;2.95;;;12.60;99.90;;;;;;4934583;28;20083;-72
2022/09/17 05:58:56;;;;;;;20.23;1.98;;;12.60;99.90;;;;;;4917705;28;20074;-70
2022/09/17 06:01:22;;;;;;;19.33;2.65;;;12.60;99.90;;;;;;4935020;29;20035;-71
2022/09/17 06:03:48;;;;;;;15.52;2.17;;;12.60;99.90;;;;;;4917561;29;20031;-71
2022/09/17 06:06:14;;;;;;;22.02;2.58;;;12.70;99.90;;;;;;4934434;28;20031;-71
2022/09/17 06:08:40;;;;;;;20.70;2.53;;;12.60;99.90;;;;;;4934174;28;20036;-72
2022/09/17 06:11:06;;;;;;;14.15;2.17;;;12.60;99.90;;;;;;4934818;28;20046;-71
2022/09/17 06:13:33;;;;;;;17.20;2.78;;;12.60;99.90;;;;;;4917834;29;20517;-72
2022/09/17 06:16:00;;;;;;;19.75;2.72;;;12.60;99.90;;;;;;4934645;28;20036;-71
2022/09/17 06:18:27;;;;;;;15.73;2.65;;;12.70;99.90;;;;;;4934019;29;20135;-71
2022/09/17 06:20:58;;;;;;;14.68;2.28;;;12.70;99.90;;;;;;4917567;29;20450;-71
2022/09/17 06:23:25;;;;;;;13.73;2.38;;;12.80;99.90;;;;;;4934050;28;20396;-71
2022/09/17 06:25:54;;;;;;;14.25;2.20;;;12.70;99.90;;;;;;4934087;28;20038;-70
2022/09/17 06:28:19;;;;;;;18.92;3.03;;;12.80;99.90;;;;;;4934576;29;20020;-71
2022/09/17 06:30:45;;;;;;;15.10;2.53;;;12.60;99.90;;;;;;4934152;28;20035;-71
2022/09/17 06:33:11;;;;;;;17.58;3.30;;;12.60;99.90;;;;;;4933919;28;20032;-71
2022/09/17 06:35:36;;;;;;;15.27;2.22;;;12.60;99.90;;;;;;4933994;28;20043;-71
2022/09/17 06:38:05;;;;;;;16.20;2.92;;;12.60;99.90;;;;;;4933959;28;20063;-71
2022/09/17 06:40:31;;;;;;;18.75;3.05;;;12.50;99.90;;;;;;4934616;29;20457;-73
2022/09/17 06:42:58;;;;;;;12.98;2.53;;;12.50;99.90;;;;;;4917311;29;20036;-73
2022/09/17 06:45:25;;;;;;;20.38;2.33;;;12.60;99.90;;;;;;4934547;28;20027;-73
2022/09/17 06:47:50;;;;;;;15.13;1.98;;;12.70;99.90;;;;;;4933953;28;20039;-72
2022/09/17 06:50:16;;;;;;;9.95;2.03;;;12.70;99.90;;;;;;4917131;29;20638;-74
2022/09/17 06:52:53;;;;;;;16.23;2.42;;;12.70;99.90;;;;;;4934514;29;20039;-74
2022/09/17 06:55:19;;;;;;;18.58;2.60;;;12.70;99.90;;;;;;4917580;29;20047;-73
2022/09/17 06:57:45;;;;;;;17.60;2.30;;;12.80;99.90;;;;;;4933831;28;20091;-73
2022/09/17 07:00:13;;;;;;;18.30;2.33;;;12.80;99.90;;;;;;4933727;28;20450;-74
2022/09/17 07:02:39;;;;;;;12.75;2.10;;;12.80;99.90;;;;;;4933668;28;20036;-70
2022/09/17 07:05:05;;;;;;;16.40;2.13;;;12.80;99.90;;;;;;4933787;29;20342;-73
2022/09/17 07:07:31;;;;;;;15.48;2.55;;;12.70;99.90;;;;;;4934224;29;20093;-73
2022/09/17 07:09:57;;;;;;;20.05;2.38;;;12.80;99.90;;;;;;4916809;29;20406;-71
2022/09/17 07:12:22;;;;;;;17.17;2.15;;;12.90;99.90;;;;;;4933024;28;20051;-72
2022/09/17 07:14:48;;;;;;;10.60;1.80;;;13.00;99.90;;;;;;4933717;28;20436;-70
2022/09/17 07:17:14;;;;;;;18.58;2.75;;;12.90;99.90;;;;;;4916775;29;20027;-72
2022/09/17 07:19:40;;;;;;;21.98;2.78;;;13.00;99.90;;;;;;4916839;29;20039;-73
2022/09/17 07:22:07;;;;;;;12.32;2.13;;;12.80;99.90;;;;;;4933135;28;20043;-71
2022/09/17 07:24:33;;;;;;;15.77;2.75;;;12.70;99.90;;;;;;4932872;28;20035;-74
2022/09/17 07:26:59;;;;;;;12.48;2.28;;;12.60;99.90;;;;;;4932789;28;20036;-72
2022/09/17 07:29:26;;;;;;;17.02;2.05;;;12.70;99.90;;;;;;4932580;29;20489;-72
2022/09/17 07:31:54;;;;;;;12.57;1.90;;;12.70;99.90;;;;;;4936184;28;20039;-70
2022/09/17 07:34:20;;;;;;;19.50;2.53;;;13.00;99.90;;;;;;4936670;29;20024;-73
2022/09/17 07:36:46;;;;;;;16.92;2.55;;;12.90;99.90;;;;;;4936358;28;20035;-72
2022/09/17 07:39:14;;;;;;;12.27;1.55;;;12.90;99.80;;;;;;4936316;28;20056;-75
2022/09/17 07:41:40;;;;;;;23.48;3.03;;;12.90;99.90;;;;;;4936288;28;20098;-72
2022/09/17 07:44:06;;;;;;;16.52;2.83;;;12.90;99.40;;;;;;4936104;28;20379;-71
2022/09/17 07:46:32;;;;;;;16.15;2.50;;;13.00;99.50;;;;;;4936484;29;20022;-73
2022/09/17 07:48:58;;;;;;;21.38;2.83;;;12.90;99.10;;;;;;4936380;28;20120;-73
2022/09/17 07:51:27;;;;;;;13.40;2.10;;;13.00;99.20;;;;;;4936118;28;20078;-72
2022/09/17 07:53:53;;;;;;;15.15;2.45;;;13.10;99.10;;;;;;4919188;29;20067;-74
2022/09/17 07:56:20;;;;;;;10.20;1.70;;;13.10;98.90;;;;;;4923173;29;20417;-74
2022/09/17 07:58:46;;;;;;;16.40;2.05;;;13.20;98.90;;;;;;4916973;29;20115;-72
2022/09/17 08:01:15;;;;;;;11.55;1.60;;;13.20;98.70;;;;;;4917387;29;20036;-72
2022/09/17 08:03:42;;;;;;;16.73;1.95;;;13.30;98.60;;;;;;4917193;29;20040;-70
2022/09/17 08:06:11;;;;;;;11.35;1.60;;;13.40;98.30;;;;;;4917285;29;20048;-72
2022/09/17 08:08:38;;;;;;;18.52;3.70;;;13.30;98.10;;;;;;4926425;29;20190;-73
2022/09/17 08:11:11;;;;;;;19.02;2.83;;;13.40;98.40;;;;;;4912002;29;20033;-73
2022/09/17 08:13:38;;;;;;;14.32;2.30;;;13.60;98.30;;;;;;4897719;29;20451;-72
2022/09/17 08:16:09;;;;;;;19.20;2.17;;;13.50;98.30;;;;;;4897192;29;20079;-72
2022/09/17 08:18:35;;;;;;;30.13;3.10;;;13.60;98.00;;;;;;4896831;29;20526;-73
2022/09/17 08:21:05;;;;;;;14.52;2.53;;;13.70;97.70;;;;;;4895911;29;20060;-72
2022/09/17 08:23:34;;;;;;;14.95;2.90;;;13.80;97.70;;;;;;4896895;29;20025;-73
2022/09/17 08:25:59;;;;;;;16.42;2.35;;;14.40;97.00;;;;;;4895663;29;20462;-75
2022/09/17 08:28:27;;;;;;;15.00;2.42;;;14.80;95.40;;;;;;4897355;29;20031;-73
2022/09/17 08:30:53;;;;;;;14.40;2.58;;;15.40;95.20;;;;;;4897040;29;20037;-73
2022/09/17 08:33:19;;;;;;;20.65;3.20;;;16.20;94.20;;;;;;4895772;29;20048;-74
2022/09/17 08:35:58;;;;;;;12.43;2.05;;;16.40;93.70;;;;;;4896876;29;20072;-73
2022/09/17 08:38:27;;;;;;;19.33;2.13;;;16.90;94.40;;;;;;4896904;29;20068;-72
2022/09/17 08:41:15;;;;;;;12.52;2.17;;;17.20;92.60;;;;;;4896138;29;20091;-74
2022/09/17 08:43:45;;;;;;;;;;;18.10;92.80;;;;;;4897726;29;20017;-73
2022/09/17 08:46:11;;;;;;;12.38;2.13;;;18.40;91.10;;;;;;4896363;29;20333;-74
2022/09/17 08:49:02;;;;;;;13.07;2.78;;;19.40;90.70;;;;;;4896633;29;20028;-73
2022/09/17 08:51:44;;;;;;;6.05;1.45;;;19.70;88.60;;;;;;4895743;29;20036;-74
2022/09/17 08:54:23;;;;;;;11.93;2.10;;;19.40;86.20;;;;;;4896926;29;20064;-77
2022/09/17 08:57:04;;;;;;;10.98;1.80;;;19.40;86.30;;;;;;4896660;29;20037;-72
2022/09/17 08:59:39;;;;;;;14.15;2.13;;;19.80;84.70;;;;;;4896478;29;20364;-72
2022/09/17 09:02:33;;;;;;;16.33;2.85;;;19.50;84.10;;;;;;4896046;29;20092;-70
2022/09/17 09:05:20;;;;;;;10.25;2.13;;;18.80;83.50;;;;;;4895914;29;20024;-74
2022/09/17 09:07:55;;;;;;;13.20;2.35;;;18.80;84.40;;;;;;4856295;29;1154332;-74
2022/09/17 09:10:26;;;;;;;6.75;2.08;;;18.00;85.00;;;;;;4897272;29;20467;-74
2022/09/17 09:12:54;;;;;;;10.60;1.92;;;17.80;86.10;;;;;;4897030;29;20032;-75
2022/09/17 09:15:55;;;;;;;13.55;2.35;;;18.00;86.10;;;;;;4896808;29;20060;-73
2022/09/17 09:18:32;;;;;;;13.35;2.47;;;18.90;84.30;;;;;;4854847;29;20040;-73
2022/09/17 09:21:17;;;;;;;15.20;2.20;;;20.60;80.80;;;;;;4896972;29;20091;-72
2022/09/17 09:23:57;;;;;;;15.05;1.95;;;20.70;77.80;;;;;;4896887;29;20056;-72
2022/09/17 09:26:45;;;;;;;10.93;2.20;;;20.20;77.70;;;;;;4880098;29;20115;-71
2022/09/17 09:29:28;;;;;;;12.73;2.20;;;19.70;80.60;;;;;;4895401;29;20402;-73
2022/09/17 09:32:23;;;;;;;11.70;1.75;;;19.80;79.20;;;;;;4895347;29;20039;-71
2022/09/17 09:34:50;;;;;;;9.23;2.17;;;20.30;81.30;;;;;;4896860;29;20112;-70
2022/09/17 09:37:30;;;;;;;7.22;2.08;;;21.30;76.50;;;;;;4896854;29;20043;-70
2022/09/17 09:40:04;;;;;;;8.40;1.58;;;20.10;75.50;;;;;;4896496;29;20044;-70
2022/09/17 09:42:36;;;;;;;13.13;2.65;;;20.00;77.60;;;;;;4896495;29;20446;-71
2022/09/17 09:45:14;;;;;;;10.70;1.85;;;20.70;75.70;;;;;;4896533;29;20493;-70
2022/09/17 09:47:56;;;;;;;9.10;1.80;;;21.20;74.80;;;;;;4896282;29;20029;-71
2022/09/17 09:50:42;;;;;;;14.85;1.85;;;21.00;72.00;;;;;;4896301;29;20267;-71
2022/09/17 09:53:26;;;;;;;6.70;1.67;;;21.10;73.50;;;;;;4895247;29;20315;-70
2022/09/17 09:56:08;;;;;;;14.20;3.05;;;21.30;71.40;;;;;;4895975;29;20056;-71
2022/09/17 09:58:39;;;;;;;12.65;1.98;;;20.60;72.90;;;;;;4896645;29;20047;-71
2022/09/17 10:01:19;;;;;;;9.25;2.15;;;21.40;72.80;;;;;;4896050;29;20047;-70
2022/09/17 10:03:46;;;;;;;10.57;2.25;;;20.90;72.10;;;;;;4895807;29;20048;-70
2022/09/17 10:06:13;;;;;;;9.43;2.00;;;20.60;72.20;;;;;;4895705;29;20037;-71
2022/09/17 10:08:49;;;;;;;12.07;2.08;;;20.30;71.10;;;;;;4895432;29;20036;-71
2022/09/17 10:11:23;;;;;;;9.88;2.08;;;20.30;71.20;;;;;;4895612;29;20071;-71
2022/09/17 10:13:49;;;;;;;12.63;2.00;;;20.10;68.90;;;;;;4896273;29;20088;-71
2022/09/17 10:16:26;;;;;;;11.48;1.92;;;20.60;68.80;;;;;;4895775;29;20045;-70
2022/09/17 10:19:13;;;;;;;9.73;1.90;;;20.90;65.90;;;;;;4879167;29;20029;-71
2022/09/17 10:21:41;;;;;;;14.85;2.33;;;21.10;69.10;;;;;;4895711;29;20071;-70
2022/09/17 10:24:22;;;;;;;;;;;22.20;65.80;;;;;;4896127;29;20035;-70
2022/09/17 10:26:48;;;;;;;7.78;1.58;;;21.30;65.90;;;;;;4894597;29;20405;-71
2022/09/17 10:29:18;;;;;;;10.27;2.00;;;21.10;64.80;;;;;;4895179;29;20048;-70
2022/09/17 10:31:50;;;;;;;11.30;2.08;;;21.30;64.80;;;;;;4895802;29;20176;-70
2022/09/17 10:34:21;;;;;;;12.52;2.03;;;20.50;66.40;;;;;;4895405;29;20366;-70
2022/09/17 10:36:47;;;;;;;14.68;2.40;;;20.90;67.30;;;;;;4894292;29;20032;-70
2022/09/17 10:39:33;;;;;;;12.93;1.92;;;21.10;63.90;;;;;;4895436;29;20366;-70
2022/09/17 10:42:04;;;;;;;8.02;2.28;;;21.10;63.50;;;;;;4895125;29;20557;-71
2022/09/17 10:44:35;;;;;;;15.43;2.05;;;21.20;64.10;;;;;;4895101;29;20041;-71
2022/09/17 10:47:17;;;;;;;8.73;1.60;;;21.60;64.00;;;;;;4895099;29;20033;-71
2022/09/17 10:49:52;;;;;;;14.70;1.40;;;21.40;61.10;;;;;;4896140;29;20384;-70
2022/09/17 10:52:25;;;;;;;15.40;1.98;;;21.30;60.40;;;;;;4895398;29;20040;-70
2022/09/17 10:55:13;;;;;;;11.48;1.63;;;20.80;60.50;;;;;;4895445;29;20033;-71
2022/09/17 10:57:57;;;;;;;;;;;20.70;61.90;;;;;;4895749;29;20029;-71
2022/09/17 11:00:23;;;;;;;16.15;2.13;;;19.70;62.30;;;;;;4895372;29;20006;-70
2022/09/17 11:03:25;;;;;;;10.02;1.52;;;19.50;64.20;;;;;;4894978;29;20028;-70
2022/09/17 11:06:05;;;;;;;10.73;1.75;;;20.40;63.30;;;;;;4897803;29;20024;-70
2022/09/17 11:08:52;;;;;;;11.05;2.00;;;20.40;62.20;;;;;;4898886;29;20051;-71
2022/09/17 11:11:45;;;;;;;17.35;2.33;;;20.20;62.80;;;;;;4899340;29;20032;-71
2022/09/17 11:14:53;;;;;;;9.80;1.70;;;20.30;63.70;;;;;;4898769;29;20033;-71
2022/09/17 11:17:49;;;;;;;;;;;19.00;65.10;;;;;;4888879;29;20048;-70
2022/09/17 11:20:45;;;;;;;7.05;1.23;;;18.70;65.30;;;;;;4890370;29;20397;-70
2022/09/17 11:23:28;;;;;;;7.03;1.40;;;18.40;64.70;;;;;;4898905;29;20036;-72
2022/09/17 11:26:30;;;;;;;7.28;1.50;;;18.20;65.60;;;;;;4897576;29;20079;-72
2022/09/17 11:29:06;;;;;;;7.25;1.80;;;18.10;66.00;;;;;;4898423;29;20061;-71
2022/09/17 11:32:25;;;;;;;6.95;1.35;;;17.80;68.00;;;;;;4899335;29;20032;-71
2022/09/17 11:35:14;;;;;;;13.38;1.85;;;17.60;69.50;;;;;;4898394;29;20370;-71
2022/09/17 11:37:49;;;;;;;12.13;1.60;;;17.60;69.90;;;;;;4898767;29;20020;-69
2022/09/17 11:40:21;;;;;;;10.75;1.75;;;17.40;70.10;;;;;;4898479;29;20044;-70
2022/09/17 11:42:54;;;;;;;18.90;2.47;;;17.10;70.80;;;;;;4898513;29;20033;-70
2022/09/17 11:45:28;;;;;;;16.85;2.00;;;17.10;70.20;;;;;;4898233;29;20370;-70
2022/09/17 11:48:09;;;;;;;12.30;1.75;;;17.00;70.60;;;;;;4898413;29;20095;-70
2022/09/17 11:50:57;;;;;;;12.90;2.30;;;17.00;70.80;;;;;;4898461;29;20033;-71
2022/09/17 11:53:39;;;;;;;;;;;17.10;71.70;;;;;;4898785;29;20040;-71
2022/09/17 11:56:14;;;;;;;5.35;1.65;;;17.10;72.40;;;;;;4898227;29;19922;-71
2022/09/17 11:58:52;;;;;;;11.20;2.60;;;16.90;73.20;;;;;;4897678;29;20322;-70
2022/09/17 12:01:45;;;;;;;14.27;2.13;;;17.00;74.40;;;;;;4898256;29;20060;-71
2022/09/17 12:04:39;;;;;;;9.90;2.22;;;17.00;74.60;;;;;;4896847;29;20033;-70
2022/09/17 12:07:40;;;;;;;9.00;1.77;;;17.00;75.10;;;;;;4898023;29;20032;-70
2022/09/17 12:10:17;;;;;;;9.18;1.83;;;16.90;74.70;;;;;;4898181;29;20376;-70
2022/09/17 12:12:52;;;;;;;7.80;1.30;;;17.10;74.70;;;;;;4897877;29;20100;-70
2022/09/17 12:15:23;;;;;;;12.45;1.70;;;17.30;78.00;;;;;;4897622;29;20691;-70
2022/09/17 12:18:22;;;;;;;8.02;1.50;;;17.40;80.50;;;;;;4897717;29;20500;-70
2022/09/17 12:20:52;;;;;;;10.20;1.55;;;17.40;81.30;;;;;;4884425;29;20076;-70
2022/09/17 12:23:51;;;;;;;6.32;1.38;;;17.60;84.00;;;;;;4897932;29;20036;-70
2022/09/17 12:26:33;;;;;;;6.72;1.42;;;17.60;86.90;;;;;;4884302;29;20096;-69
2022/09/17 12:29:25;;;;;;;8.57;1.42;;;17.20;89.00;;;;;;4897534;29;20035;-71
2022/09/17 12:31:55;;;;;;;6.40;1.20;;;17.00;90.40;;;;;;4897759;29;20023;-70
2022/09/17 12:34:54;;;;;;;5.63;1.33;;;17.00;91.10;;;;;;4898104;29;20084;-70
2022/09/17 12:37:53;;;;;;;10.77;1.13;;;17.00;91.90;;;;;;4897735;29;20484;-70
2022/09/17 12:40:25;;;;;;;7.38;2.05;;;17.00;92.20;;;;;;4897625;29;20128;-71
2022/09/17 12:43:32;;;;;;;6.88;1.80;;;16.90;92.70;;;;;;4897509;29;20063;-70
2022/09/17 12:46:06;;;;;;;5.32;1.13;;;16.80;92.60;;;;;;4849643;29;20033;-71
2022/09/17 12:48:37;;;;;;;6.53;1.80;;;16.70;93.80;;;;;;4897282;29;20039;-70
2022/09/17 12:51:22;;;;;;;7.78;1.48;;;16.40;94.20;;;;;;4897522;29;20195;-71
2022/09/17 12:54:12;;;;;;;7.40;1.30;;;15.90;94.80;;;;;;4896578;29;20041;-71
2022/09/17 12:57:02;;;;;;;14.38;2.05;;;15.80;95.70;;;;;;4896454;29;20033;-71
2022/09/17 12:59:43;;;;;;;19.52;3.13;;;15.80;95.90;;;;;;4897247;29;20040;-69
2022/09/17 13:02:18;;;;;;;10.70;1.83;;;15.50;96.20;;;;;;4897161;29;20036;-70
2022/09/17 13:04:59;;;;;;;4.30;0.80;;;15.20;97.00;;;;;;4897948;29;20340;-71
2022/09/17 13:07:41;;;;;;;7.47;1.60;;;14.70;96.70;;;;;;4896282;29;20053;-72
2022/09/17 13:10:44;;;;;;;5.97;1.20;;;14.70;97.20;;;;;;4897195;29;20044;-71
2022/09/17 13:13:27;;;;;;;2.63;0.75;;;14.60;96.70;;;;;;4897055;29;20043;-71